Time;durP1;ratioP1;P1;durP2;ratioP2;P2;SDS_P1;SDS_P2;PMS_P1;PMS_P2;Temp;Humidity;BMP_temperature;BMP_pressure;BME280_temperature;BME280_humidity;BME280_pressure;Samples;Min_cycle;Max_cycle;Signal;HPM_P1;HPM_P2
2023/07/13 00:00:44;;;;;;;1.73;0.80;;;;;;;;;;5035570;28;20128;-65
2023/07/13 00:03:13;;;;;;;1.23;0.52;;;;;;;;;;5031855;28;20034;-65
2023/07/13 00:05:39;;;;;;;1.40;0.65;;;;;;;;;;5031530;28;20421;-65
2023/07/13 00:08:05;;;;;;;1.75;0.80;;;;;;;;;;5029891;28;20037;-64
2023/07/13 00:10:31;;;;;;;1.60;0.75;;;;;;;;;;5031450;28;20040;-64
2023/07/13 00:12:57;;;;;;;2.83;1.00;;;;;;;;;;5037623;28;20048;-64
2023/07/13 00:15:25;;;;;;;2.28;0.95;;;;;;;;;;5033557;28;20076;-64
2023/07/13 00:17:52;;;;;;;1.70;1.00;;;;;;;;;;5031625;28;20052;-65
2023/07/13 00:20:18;;;;;;;2.40;1.15;;;;;;;;;;5033510;28;20033;-65
2023/07/13 00:22:44;;;;;;;2.85;1.20;;;;;;;;;;5033427;28;20703;-65
2023/07/13 00:25:11;;;;;;;2.83;1.20;;;;;;;;;;5030679;28;20231;-65
2023/07/13 00:27:38;;;;;;;2.75;1.20;;;;;;;;;;5030419;28;20493;-65
2023/07/13 00:30:05;;;;;;;1.73;0.90;;;;;;;;;;5032667;28;20041;-64
2023/07/13 00:32:31;;;;;;;2.40;1.20;;;;;;;;;;5029962;28;20521;-65
2023/07/13 00:34:58;;;;;;;2.00;1.08;;;;;;;;;;5032882;28;20051;-65
2023/07/13 00:37:24;;;;;;;2.15;1.00;;;;;;;;;;5036273;28;20047;-65
2023/07/13 00:39:50;;;;;;;2.35;1.00;;;;;;;;;;5030590;28;20037;-65
2023/07/13 00:42:16;;;;;;;0.98;0.80;;;;;;;;;;5032711;28;20033;-65
2023/07/13 00:45:00;;;;;;;2.80;0.90;;;;;;;;;;5033330;28;20370;-65
2023/07/13 00:47:27;;;;;;;2.42;0.90;;;;;;;;;;5033589;28;20033;-64
2023/07/13 00:49:53;;;;;;;2.92;0.90;;;;;;;;;;5032961;28;20044;-65
2023/07/13 00:52:19;;;;;;;1.27;0.88;;;;;;;;;;5031635;28;20459;-65
2023/07/13 00:54:46;;;;;;;1.52;1.30;;;;;;;;;;5029927;28;20068;-64
2023/07/13 00:57:15;;;;;;;2.15;1.00;;;;;;;;;;5033595;28;20814;-64
2023/07/13 00:59:46;;;;;;;2.55;0.90;;;;;;;;;;5036368;28;20087;-64
2023/07/13 01:02:12;;;;;;;3.67;1.13;;;;;;;;;;5034667;28;20121;-64
2023/07/13 01:04:38;;;;;;;0.82;0.60;;;;;;;;;;5035685;28;20053;-65
2023/07/13 01:07:05;;;;;;;1.63;0.63;;;;;;;;;;5035335;28;20044;-65
2023/07/13 01:09:31;;;;;;;4.25;0.90;;;;;;;;;;5036571;28;20041;-65
2023/07/13 01:11:58;;;;;;;1.20;0.60;;;;;;;;;;5040043;28;20059;-65
2023/07/13 01:14:24;;;;;;;2.53;0.50;;;;;;;;;;5035617;28;20037;-65
2023/07/13 01:16:50;;;;;;;1.30;0.60;;;;;;;;;;5035499;28;20497;-64
2023/07/13 01:19:19;;;;;;;1.13;0.57;;;;;;;;;;5034501;28;20375;-64
2023/07/13 01:21:50;;;;;;;1.05;0.60;;;;;;;;;;5035942;28;20053;-65
2023/07/13 01:24:16;;;;;;;1.00;0.40;;;;;;;;;;5034258;28;20049;-65
2023/07/13 01:26:42;;;;;;;0.82;0.52;;;;;;;;;;5035814;28;20033;-65
2023/07/13 01:29:08;;;;;;;0.32;0.30;;;;;;;;;;5034215;28;20045;-65
2023/07/13 01:31:34;;;;;;;0.95;0.50;;;;;;;;;;5036504;28;20047;-65
2023/07/13 01:34:01;;;;;;;0.75;0.40;;;;;;;;;;5041172;28;20047;-64
2023/07/13 01:36:27;;;;;;;1.20;0.55;;;;;;;;;;5039861;28;20477;-64
2023/07/13 01:38:53;;;;;;;1.75;0.63;;;;;;;;;;5041191;28;20045;-65
2023/07/13 01:41:19;;;;;;;0.50;0.50;;;;;;;;;;5037696;28;20047;-64
2023/07/13 01:43:45;;;;;;;1.90;0.47;;;;;;;;;;5037923;28;20037;-64
2023/07/13 01:46:11;;;;;;;1.65;0.70;;;;;;;;;;5032706;28;20088;-64
2023/07/13 01:48:37;;;;;;;2.00;0.60;;;;;;;;;;5041264;28;20038;-64
2023/07/13 01:51:03;;;;;;;2.15;0.85;;;;;;;;;;5038377;28;20565;-64
2023/07/13 01:53:29;;;;;;;1.85;0.82;;;;;;;;;;5037615;28;20049;-65
2023/07/13 01:55:55;;;;;;;2.15;0.80;;;;;;;;;;5035119;28;20047;-65
2023/07/13 01:58:21;;;;;;;3.67;1.00;;;;;;;;;;5039115;28;20080;-64
2023/07/13 02:00:49;;;;;;;0.90;0.50;;;;;;;;;;5036854;28;20033;-64
2023/07/13 02:03:17;;;;;;;0.70;0.55;;;;;;;;;;5037810;28;20047;-64
2023/07/13 02:05:44;;;;;;;1.35;0.73;;;;;;;;;;5039249;28;20464;-64
2023/07/13 02:08:10;;;;;;;1.08;0.60;;;;;;;;;;5040837;28;20482;-64
2023/07/13 02:10:37;;;;;;;1.70;0.50;;;;;;;;;;5035784;28;20715;-65
2023/07/13 02:13:05;;;;;;;0.82;0.40;;;;;;;;;;5033708;28;20047;-64
2023/07/13 02:15:32;;;;;;;0.60;0.30;;;;;;;;;;5034574;28;20053;-64
2023/07/13 02:17:58;;;;;;;0.98;0.30;;;;;;;;;;5033110;28;20413;-64
2023/07/13 02:20:26;;;;;;;0.55;0.30;;;;;;;;;;5033000;28;20148;-64
2023/07/13 02:22:52;;;;;;;1.63;0.40;;;;;;;;;;5037252;28;20507;-64
2023/07/13 02:25:18;;;;;;;2.08;0.88;;;;;;;;;;5036753;28;20048;-65
2023/07/13 02:27:44;;;;;;;1.17;0.30;;;;;;;;;;5034630;28;20040;-64
2023/07/13 02:30:11;;;;;;;0.30;0.30;;;;;;;;;;5040828;28;20123;-64
2023/07/13 02:32:37;;;;;;;0.77;0.28;;;;;;;;;;5034912;28;20037;-65
2023/07/13 02:35:03;;;;;;;0.10;0.10;;;;;;;;;;5033169;28;20076;-65
2023/07/13 02:37:29;;;;;;;0.60;0.28;;;;;;;;;;5034605;28;20045;-65
2023/07/13 02:39:56;;;;;;;0.95;0.40;;;;;;;;;;5032000;28;20050;-65
2023/07/13 02:42:22;;;;;;;0.38;0.30;;;;;;;;;;5033474;28;20056;-65
2023/07/13 02:44:49;;;;;;;0.25;0.17;;;;;;;;;;5034180;28;20045;-65
2023/07/13 02:47:15;;;;;;;0.43;0.30;;;;;;;;;;5031531;28;20076;-65
2023/07/13 02:49:41;;;;;;;0.60;0.30;;;;;;;;;;5034118;28;20037;-65
2023/07/13 02:52:07;;;;;;;0.65;0.50;;;;;;;;;;5030742;28;20029;-65
2023/07/13 02:54:34;;;;;;;0.30;0.20;;;;;;;;;;5033460;28;20736;-65
2023/07/13 02:57:00;;;;;;;0.85;0.30;;;;;;;;;;5032216;28;20559;-65
2023/07/13 02:59:26;;;;;;;0.70;0.20;;;;;;;;;;5032279;28;20049;-65
2023/07/13 03:01:52;;;;;;;0.80;0.45;;;;;;;;;;5030903;28;20069;-65
2023/07/13 03:04:19;;;;;;;0.93;0.30;;;;;;;;;;5033038;28;20058;-65
2023/07/13 03:06:46;;;;;;;0.30;0.20;;;;;;;;;;5034038;28;20494;-65
2023/07/13 03:09:12;;;;;;;0.98;0.30;;;;;;;;;;5036006;28;20401;-65
2023/07/13 03:11:38;;;;;;;0.95;0.30;;;;;;;;;;5038924;28;20482;-65
2023/07/13 03:14:05;;;;;;;2.17;0.40;;;;;;;;;;5038288;28;20061;-65
2023/07/13 03:16:31;;;;;;;0.75;0.40;;;;;;;;;;5036151;28;20047;-65
2023/07/13 03:18:57;;;;;;;1.00;0.40;;;;;;;;;;5032542;28;20045;-65
2023/07/13 03:21:23;;;;;;;0.30;0.30;;;;;;;;;;5031969;28;20041;-63
2023/07/13 03:23:49;;;;;;;1.27;0.52;;;;;;;;;;5034220;28;20057;-62
2023/07/13 03:26:18;;;;;;;1.00;0.50;;;;;;;;;;5037703;28;20041;-62
2023/07/13 03:28:44;;;;;;;0.68;0.30;;;;;;;;;;5033130;28;20044;-62
2023/07/13 03:31:12;;;;;;;0.93;0.40;;;;;;;;;;5040098;28;20053;-63
2023/07/13 03:33:38;;;;;;;0.32;0.32;;;;;;;;;;5037579;28;20041;-63
2023/07/13 03:36:06;;;;;;;2.15;0.30;;;;;;;;;;5036051;28;20041;-62
2023/07/13 03:38:32;;;;;;;0.90;0.40;;;;;;;;;;5037009;28;20043;-62
2023/07/13 03:40:59;;;;;;;0.60;0.32;;;;;;;;;;5033199;28;20041;-62
2023/07/13 03:43:25;;;;;;;1.10;0.43;;;;;;;;;;5031703;28;20507;-62
2023/07/13 03:45:51;;;;;;;0.68;0.68;;;;;;;;;;5032052;28;20053;-63
2023/07/13 03:48:17;;;;;;;0.82;0.57;;;;;;;;;;5037011;28;20075;-62
2023/07/13 03:50:43;;;;;;;4.95;1.00;;;;;;;;;;5037419;28;20029;-62
2023/07/13 03:53:10;;;;;;;1.33;0.68;;;;;;;;;;5033196;28;20103;-63
2023/07/13 03:55:36;;;;;;;1.88;0.95;;;;;;;;;;5031473;28;20402;-62
2023/07/13 03:58:22;;;;;;;1.75;0.93;;;;;;;;;;5033844;28;20549;-62
2023/07/13 04:00:48;;;;;;;0.93;0.63;;;;;;;;;;5034062;28;20374;-62
2023/07/13 04:03:14;;;;;;;2.40;0.90;;;;;;;;;;5037532;28;20037;-62
2023/07/13 04:05:40;;;;;;;1.20;0.73;;;;;;;;;;5031822;28;20145;-62
2023/07/13 04:08:06;;;;;;;1.95;0.63;;;;;;;;;;5034037;28;20045;-62
2023/07/13 04:10:33;;;;;;;2.25;1.13;;;;;;;;;;5031042;28;20045;-62
2023/07/13 04:12:59;;;;;;;3.33;1.27;;;;;;;;;;5032231;28;20602;-62
2023/07/13 04:15:25;;;;;;;2.72;1.23;;;;;;;;;;5031403;28;20649;-62
2023/07/13 04:17:51;;;;;;;2.95;1.45;;;;;;;;;;5032679;28;20048;-62
2023/07/13 04:20:17;;;;;;;2.42;1.05;;;;;;;;;;5031295;28;20042;-63
2023/07/13 04:22:43;;;;;;;2.97;0.85;;;;;;;;;;5033189;28;20052;-62
2023/07/13 04:25:09;;;;;;;1.15;0.68;;;;;;;;;;5032998;28;20045;-62
2023/07/13 04:27:35;;;;;;;1.48;0.90;;;;;;;;;;5032985;28;20033;-62
2023/07/13 04:30:01;;;;;;;1.98;1.10;;;;;;;;;;5037833;28;20048;-63
2023/07/13 04:32:27;;;;;;;3.70;0.98;;;;;;;;;;5032921;28;20052;-62
2023/07/13 04:34:55;;;;;;;2.28;1.08;;;;;;;;;;5032793;28;20051;-63
2023/07/13 04:37:21;;;;;;;2.38;1.30;;;;;;;;;;5032032;28;20045;-62
2023/07/13 04:39:47;;;;;;;2.15;0.90;;;;;;;;;;5033115;28;20514;-62
2023/07/13 04:42:13;;;;;;;1.38;0.77;;;;;;;;;;5034012;28;20557;-62
2023/07/13 04:44:39;;;;;;;2.17;1.10;;;;;;;;;;5030465;28;20080;-62
2023/07/13 04:47:06;;;;;;;3.85;1.52;;;;;;;;;;5034208;28;20405;-62
2023/07/13 04:49:32;;;;;;;3.40;1.20;;;;;;;;;;5034824;28;20038;-62
2023/07/13 04:51:58;;;;;;;1.88;1.10;;;;;;;;;;5034115;28;20091;-63
2023/07/13 04:54:24;;;;;;;1.58;1.02;;;;;;;;;;5034257;28;20036;-62
2023/07/13 04:56:50;;;;;;;1.92;0.88;;;;;;;;;;5033123;28;20036;-62
2023/07/13 04:59:16;;;;;;;2.42;1.30;;;;;;;;;;5029715;28;20033;-62
2023/07/13 05:01:42;;;;;;;5.38;1.70;;;;;;;;;;5029219;28;20109;-62
2023/07/13 05:04:08;;;;;;;4.40;1.48;;;;;;;;;;5031828;28;20043;-62
2023/07/13 05:06:34;;;;;;;2.33;1.02;;;;;;;;;;5034764;28;20049;-62
2023/07/13 05:09:00;;;;;;;4.63;1.20;;;;;;;;;;5034982;28;20132;-62
2023/07/13 05:11:26;;;;;;;2.78;1.58;;;;;;;;;;5032256;28;20054;-62
2023/07/13 05:13:52;;;;;;;2.15;1.35;;;;;;;;;;5038258;28;20083;-62
2023/07/13 05:16:19;;;;;;;1.90;1.23;;;;;;;;;;5030242;28;20041;-62
2023/07/13 05:18:45;;;;;;;2.17;1.00;;;;;;;;;;5032411;28;20631;-62
2023/07/13 05:21:12;;;;;;;3.28;1.30;;;;;;;;;;5029502;28;20646;-62
2023/07/13 05:23:38;;;;;;;4.40;1.20;;;;;;;;;;5036766;28;20036;-62
2023/07/13 05:26:04;;;;;;;3.50;1.10;;;;;;;;;;5031714;28;20124;-62
2023/07/13 05:28:31;;;;;;;2.25;1.15;;;;;;;;;;5031750;28;20100;-62
2023/07/13 05:30:57;;;;;;;3.38;1.63;;;;;;;;;;5035223;28;20036;-62
2023/07/13 05:33:24;;;;;;;1.83;1.00;;;;;;;;;;5036781;28;20761;-62
2023/07/13 05:35:50;;;;;;;4.82;2.10;;;;;;;;;;5036201;28;20044;-62
2023/07/13 05:38:16;;;;;;;1.50;1.13;;;;;;;;;;5036882;28;20106;-62
2023/07/13 05:40:45;;;;;;;1.65;0.80;;;;;;;;;;5033067;28;20429;-62
2023/07/13 05:43:11;;;;;;;4.75;1.55;;;;;;;;;;5032629;28;20087;-62
2023/07/13 05:45:38;;;;;;;2.67;1.23;;;;;;;;;;5036092;28;20041;-62
2023/07/13 05:48:04;;;;;;;4.75;1.75;;;;;;;;;;5038482;28;20045;-62
2023/07/13 05:50:30;;;;;;;3.72;1.48;;;;;;;;;;5034445;28;20040;-62
2023/07/13 05:52:56;;;;;;;2.58;1.42;;;;;;;;;;5036888;28;20124;-62
2023/07/13 05:55:22;;;;;;;3.30;1.50;;;;;;;;;;5037415;28;20048;-62
2023/07/13 05:57:48;;;;;;;2.78;1.27;;;;;;;;;;5036426;28;20084;-62
2023/07/13 06:00:15;;;;;;;5.15;2.00;;;;;;;;;;5036409;28;20041;-62
2023/07/13 06:02:41;;;;;;;3.65;1.40;;;;;;;;;;5038829;28;20077;-62
2023/07/13 06:05:07;;;;;;;4.25;1.85;;;;;;;;;;5047882;28;20045;-62
2023/07/13 06:07:33;;;;;;;4.85;1.80;;;;;;;;;;5048506;28;20142;-62
2023/07/13 06:09:59;;;;;;;4.93;1.60;;;;;;;;;;5048076;28;20041;-62
2023/07/13 06:12:25;;;;;;;4.80;1.42;;;;;;;;;;5041208;28;20059;-62
2023/07/13 06:14:51;;;;;;;5.65;1.90;;;;;;;;;;5028374;28;20474;-62
2023/07/13 06:17:18;;;;;;;3.65;1.20;;;;;;;;;;5030808;28;20045;-62
2023/07/13 06:19:44;;;;;;;4.38;1.30;;;;;;;;;;5037184;28;20046;-62
2023/07/13 06:22:11;;;;;;;2.05;1.20;;;;;;;;;;5044937;28;20041;-62
2023/07/13 06:24:37;;;;;;;3.28;1.00;;;;;;;;;;5047655;28;20040;-62
2023/07/13 06:27:03;;;;;;;2.90;1.00;;;;;;;;;;5048062;28;20124;-62
2023/07/13 06:29:29;;;;;;;3.22;1.45;;;;;;;;;;5039516;28;20045;-63
2023/07/13 06:31:55;;;;;;;3.63;1.40;;;;;;;;;;5036992;28;20531;-62
2023/07/13 06:34:21;;;;;;;2.33;1.27;;;;;;;;;;5038001;28;20032;-62
2023/07/13 06:36:47;;;;;;;1.85;0.80;;;;;;;;;;5048110;28;20092;-62
2023/07/13 06:39:13;;;;;;;3.55;1.27;;;;;;;;;;5047222;28;20056;-62
2023/07/13 06:41:39;;;;;;;3.03;1.35;;;;;;;;;;5046781;28;20045;-62
2023/07/13 06:44:06;;;;;;;2.67;1.20;;;;;;;;;;5047686;28;20148;-62
2023/07/13 06:46:32;;;;;;;2.38;1.33;;;;;;;;;;5049251;28;20077;-63
2023/07/13 06:48:58;;;;;;;3.03;1.35;;;;;;;;;;5027966;28;20041;-62
2023/07/13 06:51:25;;;;;;;3.95;1.30;;;;;;;;;;5027476;28;20044;-62
2023/07/13 06:53:51;;;;;;;3.55;1.20;;;;;;;;;;5026167;28;20127;-62
2023/07/13 06:56:18;;;;;;;1.77;1.13;;;;;;;;;;5027358;28;20069;-62
2023/07/13 06:58:44;;;;;;;2.65;1.08;;;;;;;;;;5043161;28;20075;-62
2023/07/13 07:01:10;;;;;;;3.80;1.05;;;;;;;;;;5045729;28;20048;-62
2023/07/13 07:03:36;;;;;;;1.35;0.93;;;;;;;;;;5046332;28;20374;-63
2023/07/13 07:06:25;;;;;;;1.52;1.00;;;;;;;;;;5039635;28;20067;-63
2023/07/13 07:08:52;;;;;;;0.95;0.60;;;;;;;;;;5027595;28;20029;-62
2023/07/13 07:11:22;;;;;;;3.53;1.20;;;;;;;;;;5041086;28;20136;-63
2023/07/13 07:13:49;;;;;;;2.00;0.70;;;;;;;;;;5036212;28;20048;-63
2023/07/13 07:16:15;;;;;;;1.88;0.98;;;;;;;;;;5034926;28;20072;-62
2023/07/13 07:18:41;;;;;;;3.13;1.20;;;;;;;;;;5036674;28;20124;-62
2023/07/13 07:21:07;;;;;;;3.00;1.33;;;;;;;;;;5034450;28;20357;-62
2023/07/13 07:23:33;;;;;;;2.25;1.15;;;;;;;;;;5031801;28;20124;-62
2023/07/13 07:25:59;;;;;;;2.50;1.13;;;;;;;;;;5037919;28;20566;-62
2023/07/13 07:28:28;;;;;;;1.40;0.90;;;;;;;;;;5032905;28;20393;-62
2023/07/13 07:30:54;;;;;;;1.65;0.80;;;;;;;;;;5035404;28;20045;-63
2023/07/13 07:33:21;;;;;;;1.67;1.00;;;;;;;;;;5035112;28;20404;-63
2023/07/13 07:35:47;;;;;;;1.73;1.08;;;;;;;;;;5038997;28;20047;-63
2023/07/13 07:38:13;;;;;;;2.13;1.17;;;;;;;;;;5033788;28;20068;-62
2023/07/13 07:40:40;;;;;;;2.88;0.88;;;;;;;;;;5035787;28;20072;-63
2023/07/13 07:43:06;;;;;;;0.82;0.50;;;;;;;;;;5041847;28;20037;-63
2023/07/13 07:45:32;;;;;;;1.20;1.00;;;;;;;;;;5038423;28;20606;-63
2023/07/13 07:47:59;;;;;;;3.40;1.20;;;;;;;;;;5032016;28;20075;-63
2023/07/13 07:50:26;;;;;;;4.15;1.73;;;;;;;;;;5041069;28;20044;-63
2023/07/13 07:52:52;;;;;;;1.90;1.15;;;;;;;;;;5043255;28;20123;-63
2023/07/13 07:55:18;;;;;;;4.35;1.52;;;;;;;;;;5030639;28;20075;-62
2023/07/13 07:57:44;;;;;;;0.93;0.90;;;;;;;;;;5033350;28;20453;-62
2023/07/13 08:00:10;;;;;;;1.90;0.75;;;;;;;;;;5036845;28;20559;-62
2023/07/13 08:02:36;;;;;;;1.67;0.63;;;;;;;;;;5032460;28;20045;-62
2023/07/13 08:05:03;;;;;;;1.25;0.82;;;;;;;;;;5039783;28;20095;-62
2023/07/13 08:07:31;;;;;;;1.10;0.80;;;;;;;;;;5033020;28;20040;-62
2023/07/13 08:09:57;;;;;;;1.88;1.05;;;;;;;;;;5033626;28;20045;-62
2023/07/13 08:12:23;;;;;;;1.85;0.88;;;;;;;;;;5039024;28;20400;-62
2023/07/13 08:14:53;;;;;;;1.67;0.98;;;;;;;;;;5035475;28;20045;-67
2023/07/13 08:17:20;;;;;;;1.35;0.80;;;;;;;;;;5031411;28;20386;-63
2023/07/13 08:19:46;;;;;;;1.35;0.80;;;;;;;;;;5032662;28;20509;-63
2023/07/13 08:22:12;;;;;;;3.00;0.95;;;;;;;;;;5044702;28;20032;-63
2023/07/13 08:24:39;;;;;;;1.75;0.90;;;;;;;;;;5033074;28;20060;-63
2023/07/13 08:27:05;;;;;;;1.80;0.98;;;;;;;;;;5030520;28;20091;-63
2023/07/13 08:29:31;;;;;;;2.38;1.20;;;;;;;;;;5028714;28;20036;-63
2023/07/13 08:32:00;;;;;;;2.25;0.93;;;;;;;;;;5035469;28;20499;-63
2023/07/13 08:34:26;;;;;;;1.85;0.90;;;;;;;;;;5030898;28;20048;-63
2023/07/13 08:36:53;;;;;;;1.70;0.88;;;;;;;;;;5026230;28;20049;-63
2023/07/13 08:39:19;;;;;;;1.13;0.82;;;;;;;;;;5024363;28;20050;-63
2023/07/13 08:41:47;;;;;;;0.73;0.43;;;;;;;;;;5028385;28;20075;-63
2023/07/13 08:44:22;;;;;;;1.13;0.70;;;;;;;;;;5025200;28;20042;-63
2023/07/13 08:46:50;;;;;;;0.50;0.40;;;;;;;;;;5036983;28;20042;-63
2023/07/13 08:49:18;;;;;;;0.90;0.70;;;;;;;;;;5042993;28;20053;-63
2023/07/13 08:51:47;;;;;;;1.20;0.73;;;;;;;;;;5028378;28;20099;-63
2023/07/13 08:54:18;;;;;;;1.90;0.90;;;;;;;;;;5034197;28;20408;-63
2023/07/13 08:56:46;;;;;;;2.38;0.88;;;;;;;;;;5033962;28;20121;-65
2023/07/13 08:59:14;;;;;;;1.17;0.80;;;;;;;;;;5033339;28;20606;-63
2023/07/13 09:01:40;;;;;;;1.10;0.73;;;;;;;;;;5037682;28;20532;-63
2023/07/13 09:04:19;;;;;;;1.35;0.80;;;;;;;;;;5041407;28;20044;-63
2023/07/13 09:06:54;;;;;;;2.10;0.90;;;;;;;;;;5037026;28;20067;-63
2023/07/13 09:09:27;;;;;;;3.90;1.35;;;;;;;;;;5038042;28;20041;-63
2023/07/13 09:11:58;;;;;;;2.75;1.60;;;;;;;;;;5040309;28;20044;-63
2023/07/13 09:14:45;;;;;;;3.10;1.20;;;;;;;;;;5041826;28;20535;-64
2023/07/13 09:17:24;;;;;;;15.15;1.80;;;;;;;;;;5028258;28;20409;-63
2023/07/13 09:20:08;;;;;;;2.40;1.15;;;;;;;;;;5029082;28;20049;-63
2023/07/13 09:22:36;;;;;;;3.47;1.45;;;;;;;;;;5032452;28;20077;-63
2023/07/13 09:25:06;;;;;;;2.47;1.35;;;;;;;;;;5027949;28;20509;-63
2023/07/13 09:27:35;;;;;;;3.97;1.48;;;;;;;;;;5030440;28;20043;-63
2023/07/13 09:30:05;;;;;;;1.52;0.95;;;;;;;;;;5028408;28;20179;-63
2023/07/13 09:32:32;;;;;;;1.63;1.00;;;;;;;;;;5037109;28;20312;-63
2023/07/13 09:35:00;;;;;;;2.65;1.00;;;;;;;;;;5027226;28;20529;-63
2023/07/13 09:37:30;;;;;;;1.33;1.23;;;;;;;;;;5027457;28;20060;-62
2023/07/13 09:39:57;;;;;;;2.08;0.85;;;;;;;;;;5035498;28;20054;-61
2023/07/13 09:42:23;;;;;;;1.17;0.60;;;;;;;;;;5043114;28;20060;-62
2023/07/13 09:44:56;;;;;;;2.47;0.88;;;;;;;;;;5043392;28;20470;-61
2023/07/13 09:47:26;;;;;;;1.98;0.93;;;;;;;;;;5043037;28;20037;-62
2023/07/13 09:50:07;;;;;;;1.02;0.77;;;;;;;;;;5043484;28;20044;-62
2023/07/13 09:52:43;;;;;;;0.90;0.60;;;;;;;;;;5042589;28;20509;-61
2023/07/13 09:55:34;;;;;;;1.25;0.45;;;;;;;;;;5046421;28;20056;-61
2023/07/13 09:58:05;;;;;;;1.40;0.50;;;;;;;;;;5035563;28;20049;-61
2023/07/13 10:00:31;;;;;;;2.80;1.08;;;;;;;;;;5045183;28;20182;-61
2023/07/13 10:03:00;;;;;;;0.90;0.47;;;;;;;;;;5045359;28;20439;-62
2023/07/13 10:05:26;;;;;;;0.70;0.43;;;;;;;;;;5046433;28;20734;-62
2023/07/13 10:07:56;;;;;;;1.75;0.80;;;;;;;;;;5047515;28;20037;-62
2023/07/13 10:10:23;;;;;;;0.90;0.60;;;;;;;;;;5046490;28;20095;-61
2023/07/13 10:12:50;;;;;;;2.15;0.82;;;;;;;;;;5047022;28;20137;-61
2023/07/13 10:15:18;;;;;;;2.10;0.65;;;;;;;;;;5041136;28;20037;-62
2023/07/13 10:17:44;;;;;;;1.90;0.75;;;;;;;;;;5035808;28;20045;-62
2023/07/13 10:20:12;;;;;;;0.73;0.40;;;;;;;;;;5032341;28;20048;-62
2023/07/13 10:23:00;;;;;;;1.35;0.75;;;;;;;;;;5043118;28;20045;-62
2023/07/13 10:25:28;;;;;;;0.55;0.40;;;;;;;;;;5041715;28;20053;-62
2023/07/13 10:27:57;;;;;;;0.82;0.43;;;;;;;;;;5048028;28;20115;-62
2023/07/13 10:30:28;;;;;;;1.35;0.57;;;;;;;;;;5045161;28;20413;-62
2023/07/13 10:32:54;;;;;;;0.73;0.40;;;;;;;;;;5045479;28;20043;-62
2023/07/13 10:35:22;;;;;;;1.15;0.70;;;;;;;;;;5043384;28;20049;-62
2023/07/13 10:37:57;;;;;;;0.47;0.40;;;;;;;;;;5029927;28;20049;-62
2023/07/13 10:40:30;;;;;;;0.25;0.20;;;;;;;;;;5046054;28;20287;-62
2023/07/13 10:42:58;;;;;;;0.57;0.32;;;;;;;;;;5033068;28;20061;-62
2023/07/13 10:45:25;;;;;;;3.28;0.70;;;;;;;;;;5025261;28;20049;-62
2023/07/13 10:47:55;;;;;;;0.30;0.30;;;;;;;;;;5026228;28;20441;-62
2023/07/13 10:50:23;;;;;;;0.43;0.40;;;;;;;;;;5026124;28;20052;-62
2023/07/13 10:53:01;;;;;;;0.43;0.40;;;;;;;;;;5041467;28;20048;-62
2023/07/13 10:55:55;;;;;;;0.40;0.28;;;;;;;;;;5036426;28;20427;-62
2023/07/13 10:58:29;;;;;;;1.55;0.40;;;;;;;;;;5043094;28;20095;-61
2023/07/13 11:01:01;;;;;;;0.88;0.30;;;;;;;;;;5044146;28;20032;-61
2023/07/13 11:03:29;;;;;;;0.50;0.30;;;;;;;;;;5028398;28;20465;-63
2023/07/13 11:06:15;;;;;;;1.92;0.50;;;;;;;;;;5036577;28;20072;-63
2023/07/13 11:08:47;;;;;;;1.55;0.52;;;;;;;;;;5034579;28;20075;-64
2023/07/13 11:11:26;;;;;;;0.80;0.40;;;;;;;;;;5046365;28;20053;-63
2023/07/13 11:13:52;;;;;;;0.65;0.40;;;;;;;;;;5045656;28;20052;-63
2023/07/13 11:16:18;;;;;;;1.42;0.70;;;;;;;;;;5046218;28;20162;-63
2023/07/13 11:18:48;;;;;;;0.63;0.30;;;;;;;;;;5045451;28;20044;-63
2023/07/13 11:21:16;;;;;;;2.80;0.63;;;;;;;;;;5025469;28;20048;-63
2023/07/13 11:23:44;;;;;;;0.82;0.60;;;;;;;;;;5026241;28;20517;-63
2023/07/13 11:26:29;;;;;;;3.10;1.00;;;;;;;;;;5033521;28;20456;-63
2023/07/13 11:28:55;;;;;;;1.33;0.80;;;;;;;;;;5046097;28;20049;-63
2023/07/13 11:31:22;;;;;;;0.38;0.38;;;;;;;;;;5045525;28;20515;-63
2023/07/13 11:33:51;;;;;;;1.10;0.60;;;;;;;;;;5044984;28;20455;-63
2023/07/13 11:36:21;;;;;;;1.65;0.60;;;;;;;;;;5045771;28;20036;-63
2023/07/13 11:38:55;;;;;;;0.68;0.40;;;;;;;;;;5045781;28;20048;-63
2023/07/13 11:41:32;;;;;;;1.20;0.57;;;;;;;;;;5044391;28;20044;-63
2023/07/13 11:44:11;;;;;;;0.95;0.40;;;;;;;;;;5044899;28;20044;-63
2023/07/13 11:46:37;;;;;;;2.42;1.00;;;;;;;;;;5034655;28;20124;-63
2023/07/13 11:49:06;;;;;;;1.95;0.55;;;;;;;;;;5045254;28;20048;-63
2023/07/13 11:51:34;;;;;;;2.03;0.90;;;;;;;;;;5045597;28;20492;-64
2023/07/13 11:54:05;;;;;;;2.47;0.68;;;;;;;;;;5045778;28;20041;-63
2023/07/13 11:56:33;;;;;;;0.90;0.60;;;;;;;;;;5044491;28;20462;-63
2023/07/13 11:59:04;;;;;;;2.40;0.90;;;;;;;;;;5044872;28;20044;-63
2023/07/13 12:01:32;;;;;;;2.25;1.02;;;;;;;;;;5035539;28;20182;-63
2023/07/13 12:03:59;;;;;;;1.52;0.98;;;;;;;;;;5028821;28;20042;-63
2023/07/13 12:06:29;;;;;;;0.82;0.68;;;;;;;;;;5025445;28;20398;-63
2023/07/13 12:09:03;;;;;;;1.42;0.60;;;;;;;;;;5025994;28;20121;-63
2023/07/13 12:11:30;;;;;;;1.48;0.47;;;;;;;;;;5045078;28;20099;-63
2023/07/13 12:13:56;;;;;;;1.33;0.57;;;;;;;;;;5045041;28;20072;-63
2023/07/13 12:16:22;;;;;;;1.02;0.70;;;;;;;;;;5044426;28;20051;-64
2023/07/13 12:18:49;;;;;;;1.83;0.90;;;;;;;;;;5045404;28;20371;-64
2023/07/13 12:21:18;;;;;;;1.00;0.57;;;;;;;;;;5044938;28;20044;-64
2023/07/13 12:23:45;;;;;;;1.13;0.70;;;;;;;;;;5044487;28;20124;-63
2023/07/13 12:26:12;;;;;;;1.70;0.70;;;;;;;;;;5044797;28;20073;-63
2023/07/13 12:28:44;;;;;;;1.95;0.85;;;;;;;;;;5043217;28;20029;-63
2023/07/13 12:31:27;;;;;;;2.25;0.60;;;;;;;;;;5024334;28;20111;-64
2023/07/13 12:34:11;;;;;;;0.73;0.50;;;;;;;;;;5027163;28;20048;-63
2023/07/13 12:36:39;;;;;;;0.77;0.40;;;;;;;;;;5035510;28;20347;-63
2023/07/13 12:39:12;;;;;;;0.47;0.30;;;;;;;;;;5043637;28;21127;-63
2023/07/13 12:41:39;;;;;;;0.30;0.30;;;;;;;;;;5030506;28;20052;-63
2023/07/13 12:44:08;;;;;;;0.82;0.55;;;;;;;;;;5026407;28;20041;-62
2023/07/13 12:46:34;;;;;;;0.57;0.47;;;;;;;;;;5043354;28;20045;-63
2023/07/13 12:49:00;;;;;;;1.65;0.80;;;;;;;;;;5043500;28;20053;-63
2023/07/13 12:51:28;;;;;;;1.38;0.70;;;;;;;;;;5036868;28;20049;-62
2023/07/13 12:54:05;;;;;;;1.05;0.70;;;;;;;;;;5038873;28;20044;-63
2023/07/13 12:56:33;;;;;;;1.02;0.60;;;;;;;;;;5040714;28;20044;-63
2023/07/13 12:59:02;;;;;;;1.45;0.50;;;;;;;;;;5042867;28;20053;-63
2023/07/13 13:01:30;;;;;;;1.65;0.75;;;;;;;;;;5043192;28;20175;-63
2023/07/13 13:03:56;;;;;;;0.73;0.43;;;;;;;;;;5043614;28;20144;-63
2023/07/13 13:06:27;;;;;;;2.30;0.70;;;;;;;;;;5042285;28;20118;-63
2023/07/13 13:08:54;;;;;;;1.45;0.98;;;;;;;;;;5043109;28;20041;-62
2023/07/13 13:11:22;;;;;;;2.38;0.65;;;;;;;;;;5042626;28;20053;-62
2023/07/13 13:13:49;;;;;;;1.88;0.50;;;;;;;;;;5040688;28;20047;-62
2023/07/13 13:16:19;;;;;;;0.65;0.50;;;;;;;;;;5042993;28;20045;-62
2023/07/13 13:18:45;;;;;;;0.30;0.22;;;;;;;;;;5039846;28;20048;-62
2023/07/13 13:21:11;;;;;;;1.63;0.60;;;;;;;;;;5040150;28;20037;-63
2023/07/13 13:23:38;;;;;;;0.68;0.40;;;;;;;;;;5031313;28;20040;-63
2023/07/13 13:26:07;;;;;;;0.55;0.38;;;;;;;;;;5042606;28;20480;-64
2023/07/13 13:28:33;;;;;;;0.43;0.40;;;;;;;;;;5039061;28;20049;-63
2023/07/13 13:30:59;;;;;;;1.30;0.50;;;;;;;;;;5035789;28;20120;-63
2023/07/13 13:33:25;;;;;;;0.95;0.57;;;;;;;;;;5042781;28;20501;-63
2023/07/13 13:35:51;;;;;;;1.98;0.77;;;;;;;;;;5030964;28;20571;-63
2023/07/13 13:38:19;;;;;;;1.27;1.00;;;;;;;;;;5024249;28;20041;-63
2023/07/13 13:40:46;;;;;;;2.35;1.05;;;;;;;;;;5023798;28;20517;-63
2023/07/13 13:43:26;;;;;;;0.63;0.60;;;;;;;;;;5024432;28;20037;-63
2023/07/13 13:45:52;;;;;;;1.75;0.82;;;;;;;;;;5031481;28;20052;-63
2023/07/13 13:48:20;;;;;;;0.82;0.70;;;;;;;;;;5038092;28;20032;-63
2023/07/13 13:50:46;;;;;;;1.40;0.90;;;;;;;;;;5037915;28;20042;-63
2023/07/13 13:53:13;;;;;;;1.58;0.70;;;;;;;;;;5026872;28;20152;-63
2023/07/13 13:55:41;;;;;;;0.75;0.68;;;;;;;;;;5042740;28;20071;-63
2023/07/13 13:58:08;;;;;;;1.05;0.75;;;;;;;;;;5044329;28;20386;-63
2023/07/13 14:00:34;;;;;;;1.23;0.85;;;;;;;;;;5043964;28;20041;-64
2023/07/13 14:03:01;;;;;;;1.83;0.90;;;;;;;;;;5039290;28;20151;-63
2023/07/13 14:05:27;;;;;;;3.60;1.25;;;;;;;;;;5032912;28;20103;-63
2023/07/13 14:07:54;;;;;;;1.20;0.90;;;;;;;;;;5030460;28;20497;-63
2023/07/13 14:10:20;;;;;;;2.10;0.90;;;;;;;;;;5027102;28;20045;-63
2023/07/13 14:12:48;;;;;;;2.03;0.88;;;;;;;;;;5033836;28;20061;-63
2023/07/13 14:15:20;;;;;;;2.63;1.17;;;;;;;;;;5039379;28;20059;-63
2023/07/13 14:17:49;;;;;;;0.90;0.80;;;;;;;;;;5034692;28;20051;-63
2023/07/13 14:20:15;;;;;;;1.15;0.60;;;;;;;;;;5026177;28;20124;-63
2023/07/13 14:22:45;;;;;;;0.95;0.70;;;;;;;;;;5036735;28;20049;-63
2023/07/13 14:25:14;;;;;;;1.15;0.75;;;;;;;;;;5035361;28;20052;-63
2023/07/13 14:27:41;;;;;;;0.60;0.60;;;;;;;;;;5028472;28;20477;-63
2023/07/13 14:30:18;;;;;;;1.17;0.70;;;;;;;;;;5033638;28;20045;-63
2023/07/13 14:32:45;;;;;;;1.05;0.80;;;;;;;;;;5036676;28;20121;-62
2023/07/13 14:35:14;;;;;;;2.88;1.15;;;;;;;;;;5033611;28;20045;-62
2023/07/13 14:37:41;;;;;;;1.00;0.90;;;;;;;;;;5031369;28;20736;-63
2023/07/13 14:40:30;;;;;;;1.48;0.90;;;;;;;;;;5027829;28;20580;-63
2023/07/13 14:42:56;;;;;;;1.27;1.08;;;;;;;;;;5027585;28;20574;-62
2023/07/13 14:45:22;;;;;;;2.70;0.98;;;;;;;;;;5029631;28;20501;-62
2023/07/13 14:47:48;;;;;;;1.33;0.80;;;;;;;;;;5027254;28;20041;-62